Time;durP1;ratioP1;P1;durP2;ratioP2;P2;SDS_P1;SDS_P2;PMS_P1;PMS_P2;Temp;Humidity;BMP_temperature;BMP_pressure;BME280_temperature;BME280_humidity;BME280_pressure;Samples;Min_cycle;Max_cycle;Signal;HPM_P1;HPM_P2
2022/05/18 00:02:21;;;;;;;4.40;1.90;;;8.10;59.80;;;;;;5054414;28;20059;-69
2022/05/18 00:04:46;;;;;;;4.63;1.60;;;8.10;59.20;;;;;;5054287;28;20021;-69
2022/05/18 00:07:12;;;;;;;2.92;1.50;;;8.00;58.40;;;;;;5054256;28;20029;-69
2022/05/18 00:09:37;;;;;;;3.65;1.77;;;8.00;57.50;;;;;;5054141;28;20390;-68
2022/05/18 00:12:04;;;;;;;1.35;1.25;;;8.00;57.40;;;;;;5054194;28;20033;-69
2022/05/18 00:14:29;;;;;;;1.58;1.48;;;8.00;57.20;;;;;;5054010;28;20478;-69
2022/05/18 00:16:56;;;;;;;2.80;1.50;;;7.90;57.10;;;;;;5053727;28;20052;-69
2022/05/18 00:19:21;;;;;;;2.92;1.63;;;7.90;57.20;;;;;;5053978;28;20029;-69
2022/05/18 00:21:47;;;;;;;4.40;1.73;;;7.80;56.90;;;;;;5054039;28;20058;-68
2022/05/18 00:24:13;;;;;;;8.43;1.60;;;7.80;57.00;;;;;;5054097;28;20021;-69
2022/05/18 00:26:39;;;;;;;3.65;2.20;;;7.80;56.90;;;;;;5053990;28;20021;-69
2022/05/18 00:29:05;;;;;;;2.13;1.45;;;7.80;57.10;;;;;;5054097;28;20390;-70
2022/05/18 00:31:30;;;;;;;2.67;1.35;;;7.70;57.10;;;;;;5064373;28;20028;-69
2022/05/18 00:33:56;;;;;;;3.80;1.50;;;7.70;57.30;;;;;;5073711;28;20027;-69
2022/05/18 00:36:21;;;;;;;2.03;1.60;;;7.60;57.40;;;;;;5073483;28;20107;-69
2022/05/18 00:38:47;;;;;;;2.80;1.38;;;7.60;58.10;;;;;;5073721;28;20082;-69
2022/05/18 00:41:12;;;;;;;4.68;1.58;;;7.50;58.50;;;;;;5073581;28;20021;-69
2022/05/18 00:43:41;;;;;;;1.92;1.48;;;7.50;59.00;;;;;;5073567;28;20024;-69
2022/05/18 00:46:11;;;;;;;1.85;1.67;;;7.40;59.60;;;;;;5064573;28;20032;-68
2022/05/18 00:48:37;;;;;;;5.28;1.98;;;7.40;59.90;;;;;;5053194;28;20029;-69
2022/05/18 00:51:08;;;;;;;3.88;2.45;;;7.20;60.50;;;;;;5053524;28;20028;-69
2022/05/18 00:53:50;;;;;;;6.18;2.67;;;7.20;61.10;;;;;;5053424;28;20072;-68
2022/05/18 00:56:24;;;;;;;4.00;2.10;;;7.10;61.60;;;;;;5053277;28;20035;-69
2022/05/18 00:59:08;;;;;;;3.47;2.10;;;7.00;62.30;;;;;;5053620;28;20262;-69
2022/05/18 01:01:34;;;;;;;4.95;1.60;;;7.00;62.80;;;;;;5052059;28;20478;-69
2022/05/18 01:04:02;;;;;;;3.03;1.83;;;6.90;63.00;;;;;;5053246;28;20032;-69
2022/05/18 01:06:36;;;;;;;5.47;1.70;;;6.80;63.00;;;;;;5053188;28;20025;-68
2022/05/18 01:09:02;;;;;;;3.30;2.17;;;6.80;63.30;;;;;;5053297;28;20032;-68
2022/05/18 01:11:28;;;;;;;3.85;1.90;;;6.70;63.40;;;;;;5050988;28;20021;-69
2022/05/18 01:13:54;;;;;;;3.80;2.10;;;6.70;63.30;;;;;;5043831;28;20072;-69
2022/05/18 01:16:20;;;;;;;2.75;1.92;;;6.60;63.10;;;;;;5032891;28;20075;-68
2022/05/18 01:18:48;;;;;;;3.65;2.22;;;6.60;63.20;;;;;;5032014;28;20029;-69
2022/05/18 01:21:13;;;;;;;3.10;1.90;;;6.50;63.20;;;;;;5033075;28;20100;-69
2022/05/18 01:23:59;;;;;;;3.22;1.65;;;6.40;62.90;;;;;;5031877;28;20125;-69
2022/05/18 01:26:30;;;;;;;5.65;2.15;;;6.40;62.90;;;;;;5031775;28;20048;-69
2022/05/18 01:28:59;;;;;;;4.50;2.05;;;6.30;63.10;;;;;;5032008;28;20487;-68
2022/05/18 01:31:44;;;;;;;3.38;2.25;;;6.30;63.10;;;;;;5053311;28;20029;-68
2022/05/18 01:34:10;;;;;;;2.10;1.80;;;6.30;63.30;;;;;;5072863;28;20079;-68
2022/05/18 01:36:36;;;;;;;7.22;2.15;;;6.20;63.60;;;;;;5072767;28;20405;-69
2022/05/18 01:39:02;;;;;;;3.42;2.10;;;6.10;64.00;;;;;;5071637;28;20038;-70
2022/05/18 01:41:33;;;;;;;2.70;2.20;;;6.00;64.60;;;;;;5072802;28;20493;-70
2022/05/18 01:44:00;;;;;;;3.05;2.10;;;6.00;64.80;;;;;;5073053;28;20063;-71
2022/05/18 01:46:29;;;;;;;4.13;3.53;;;5.90;65.20;;;;;;5061079;28;20090;-71
2022/05/18 01:48:55;;;;;;;4.82;2.08;;;5.90;65.20;;;;;;5052809;28;20017;-71
2022/05/18 01:51:32;;;;;;;6.50;2.13;;;5.80;65.50;;;;;;5052490;28;20031;-70
2022/05/18 01:53:58;;;;;;;4.70;1.90;;;5.70;65.80;;;;;;5052954;28;20029;-70
2022/05/18 01:56:24;;;;;;;5.63;2.17;;;5.70;66.20;;;;;;5052714;28;20031;-70
2022/05/18 01:58:49;;;;;;;5.32;2.97;;;5.70;66.50;;;;;;5053267;28;20438;-72
2022/05/18 02:01:15;;;;;;;4.72;2.28;;;5.60;66.40;;;;;;5056601;28;20029;-71
2022/05/18 02:03:40;;;;;;;3.72;2.08;;;5.60;67.00;;;;;;5056653;28;20390;-71
2022/05/18 02:06:06;;;;;;;4.57;2.15;;;5.50;67.00;;;;;;5056584;28;20359;-71
2022/05/18 02:08:32;;;;;;;3.97;2.70;;;5.50;67.40;;;;;;5056299;28;20394;-71
2022/05/18 02:10:57;;;;;;;4.55;2.20;;;5.40;67.50;;;;;;5056481;28;20044;-70
2022/05/18 02:13:23;;;;;;;3.05;2.40;;;5.40;67.70;;;;;;5056425;28;20021;-71
2022/05/18 02:15:49;;;;;;;4.18;2.10;;;5.40;67.60;;;;;;5056392;28;20123;-71
2022/05/18 02:18:14;;;;;;;4.07;2.38;;;5.30;67.60;;;;;;5056187;28;20122;-70
2022/05/18 02:20:41;;;;;;;3.97;1.63;;;5.30;67.90;;;;;;5056424;28;20020;-70
2022/05/18 02:23:07;;;;;;;5.72;2.45;;;5.30;67.90;;;;;;5056365;28;20028;-71
2022/05/18 02:25:34;;;;;;;4.13;2.42;;;5.20;67.50;;;;;;5056190;28;20025;-71
2022/05/18 02:28:00;;;;;;;5.57;2.30;;;5.20;67.60;;;;;;5056095;28;20028;-71
2022/05/18 02:30:25;;;;;;;6.05;2.05;;;5.20;67.50;;;;;;5056912;28;20021;-71
2022/05/18 02:32:51;;;;;;;5.18;2.17;;;5.20;67.50;;;;;;5076116;28;20063;-71
2022/05/18 02:35:17;;;;;;;2.42;2.22;;;5.10;67.70;;;;;;5074804;28;20023;-72
2022/05/18 02:37:42;;;;;;;4.82;2.78;;;5.00;68.20;;;;;;5075597;28;20115;-71
2022/05/18 02:40:10;;;;;;;5.18;1.98;;;5.00;67.50;;;;;;5076012;28;20034;-70
2022/05/18 02:42:35;;;;;;;2.63;2.00;;;4.90;67.60;;;;;;5075968;28;20028;-70
2022/05/18 02:45:01;;;;;;;2.95;2.03;;;4.90;67.60;;;;;;5075505;28;20024;-71
2022/05/18 02:47:27;;;;;;;3.67;2.30;;;4.80;67.60;;;;;;5055895;28;20060;-70
2022/05/18 02:49:53;;;;;;;2.75;2.03;;;4.80;67.70;;;;;;5055890;28;20049;-71
2022/05/18 02:52:18;;;;;;;4.70;1.85;;;4.80;67.70;;;;;;5055659;28;20025;-70
2022/05/18 02:57:28;;;;;;;3.53;1.88;;;4.70;68.10;;;;;;5055658;28;20095;-71
2022/05/18 02:59:54;;;;;;;5.18;2.13;;;4.70;68.20;;;;;;5055769;28;20398;-71
2022/05/18 03:02:19;;;;;;;5.18;2.45;;;4.70;68.20;;;;;;5055564;28;20063;-71
2022/05/18 03:04:45;;;;;;;3.15;1.98;;;4.70;68.50;;;;;;5055550;28;20028;-71
2022/05/18 03:07:11;;;;;;;2.20;1.80;;;4.70;68.70;;;;;;5055511;28;20146;-70
2022/05/18 03:09:36;;;;;;;5.38;2.10;;;4.70;68.90;;;;;;5054954;28;20024;-70
2022/05/18 03:12:03;;;;;;;6.18;3.10;;;4.60;68.90;;;;;;5054082;28;20112;-71
2022/05/18 03:14:28;;;;;;;3.30;2.08;;;4.60;69.50;;;;;;5055471;28;20021;-70
2022/05/18 03:16:54;;;;;;;3.35;2.35;;;4.60;69.30;;;;;;5055115;28;20413;-70
2022/05/18 03:19:20;;;;;;;5.07;2.10;;;4.60;69.60;;;;;;5055186;28;20013;-71
2022/05/18 03:24:29;;;;;;;3.15;1.95;;;4.50;69.50;;;;;;5055455;28;20094;-71
2022/05/18 03:26:55;;;;;;;4.57;2.50;;;4.60;69.50;;;;;;5055125;28;20025;-71
2022/05/18 03:29:21;;;;;;;6.07;2.05;;;4.60;69.30;;;;;;5053744;28;20032;-70
2022/05/18 03:31:47;;;;;;;7.53;2.63;;;4.70;69.10;;;;;;5068820;28;20029;-70
2022/05/18 03:34:13;;;;;;;3.22;2.00;;;4.90;68.50;;;;;;5074973;28;20016;-71
2022/05/18 03:36:39;;;;;;;4.00;2.55;;;5.10;68.00;;;;;;5074824;28;20104;-71
2022/05/18 03:39:06;;;;;;;1.95;1.73;;;5.20;67.30;;;;;;5074728;28;20095;-71
2022/05/18 03:41:34;;;;;;;4.57;2.20;;;5.40;66.90;;;;;;5073690;28;20383;-70
2022/05/18 03:44:03;;;;;;;3.97;1.98;;;5.60;66.10;;;;;;5074748;28;20025;-71
2022/05/18 03:46:29;;;;;;;2.45;1.88;;;5.90;66.00;;;;;;5061631;28;20021;-71
2022/05/18 03:48:55;;;;;;;5.95;1.90;;;6.00;64.20;;;;;;5054695;28;20025;-72
2022/05/18 03:51:20;;;;;;;1.85;1.75;;;6.20;63.70;;;;;;5054595;28;20059;-70
2022/05/18 03:53:46;;;;;;;3.40;1.90;;;6.30;63.20;;;;;;5054827;28;20032;-71
2022/05/18 03:56:12;;;;;;;2.67;1.58;;;6.40;62.30;;;;;;5054515;28;20123;-70
2022/05/18 03:58:38;;;;;;;4.97;1.70;;;6.40;61.80;;;;;;5053141;28;20132;-72
2022/05/18 04:01:09;;;;;;;1.67;1.58;;;6.50;61.30;;;;;;5054634;28;20060;-71
2022/05/18 04:03:37;;;;;;;3.55;1.88;;;6.60;60.90;;;;;;5054402;28;20029;-70
2022/05/18 04:06:03;;;;;;;3.75;2.03;;;6.70;60.70;;;;;;5054351;28;20024;-70
2022/05/18 04:08:29;;;;;;;4.15;2.53;;;6.80;60.30;;;;;;5054297;28;20025;-70
2022/05/18 04:10:55;;;;;;;5.78;1.80;;;6.80;60.10;;;;;;5054455;28;20027;-72
2022/05/18 04:13:24;;;;;;;1.95;1.27;;;6.90;60.10;;;;;;5054227;28;20375;-72
2022/05/18 04:15:51;;;;;;;3.40;1.80;;;7.00;59.80;;;;;;5053119;28;20035;-71
2022/05/18 04:18:16;;;;;;;5.70;1.80;;;7.00;59.50;;;;;;5053952;28;20513;-70
2022/05/18 04:20:42;;;;;;;5.28;1.80;;;7.20;59.40;;;;;;5053942;28;20057;-70
2022/05/18 04:23:08;;;;;;;3.85;1.90;;;7.20;59.00;;;;;;5053379;28;20394;-71
2022/05/18 04:25:35;;;;;;;3.00;1.48;;;7.30;59.00;;;;;;5053894;28;20025;-71
2022/05/18 04:28:01;;;;;;;3.67;1.70;;;7.30;58.80;;;;;;5053918;28;20108;-71
2022/05/18 04:30:27;;;;;;;5.45;1.77;;;7.20;58.70;;;;;;5056885;28;20091;-72
2022/05/18 04:32:54;;;;;;;3.42;1.75;;;7.20;59.00;;;;;;5073894;28;20165;-71
2022/05/18 04:35:23;;;;;;;4.07;2.10;;;7.20;59.40;;;;;;5073689;28;20037;-70
2022/05/18 04:37:48;;;;;;;1.58;1.38;;;7.20;59.10;;;;;;5072449;28;20043;-70
2022/05/18 04:40:14;;;;;;;3.22;1.90;;;7.20;59.10;;;;;;5073719;28;20377;-70
2022/05/18 04:42:40;;;;;;;6.22;1.75;;;7.30;59.10;;;;;;5073746;28;20074;-71
2022/05/18 04:45:08;;;;;;;3.42;1.95;;;7.30;59.30;;;;;;5071600;28;20100;-71
2022/05/18 04:47:34;;;;;;;5.30;1.45;;;7.30;59.20;;;;;;5053768;28;20021;-70
2022/05/18 04:49:59;;;;;;;5.13;1.70;;;7.50;59.00;;;;;;5053551;28;20029;-71
2022/05/18 04:52:25;;;;;;;2.60;2.15;;;7.50;58.80;;;;;;5052274;28;20025;-71
2022/05/18 04:54:51;;;;;;;3.28;1.45;;;7.50;58.70;;;;;;5053537;28;20463;-71
2022/05/18 04:57:17;;;;;;;4.65;1.67;;;7.50;58.60;;;;;;5053358;28;20029;-71
2022/05/18 04:59:43;;;;;;;5.82;1.70;;;7.50;58.50;;;;;;5053326;28;20367;-71
2022/05/18 05:02:08;;;;;;;4.55;1.55;;;7.60;58.80;;;;;;5053411;28;20036;-71
2022/05/18 05:04:35;;;;;;;4.75;1.60;;;7.70;58.40;;;;;;5053147;28;20021;-71
2022/05/18 05:07:01;;;;;;;5.18;1.65;;;7.80;57.70;;;;;;5053211;28;20063;-70
2022/05/18 05:09:26;;;;;;;2.13;1.80;;;7.90;56.80;;;;;;5053286;28;20017;-71
2022/05/18 05:11:53;;;;;;;2.58;1.50;;;7.80;55.90;;;;;;5053338;28;20032;-70
2022/05/18 05:14:19;;;;;;;2.40;1.33;;;7.90;56.20;;;;;;5053062;28;20036;-71
2022/05/18 05:16:45;;;;;;;5.47;1.50;;;7.90;56.00;;;;;;5053172;28;20059;-71
2022/05/18 05:19:12;;;;;;;3.25;1.63;;;7.90;55.90;;;;;;5052952;28;20021;-71
2022/05/18 05:21:42;;;;;;;2.55;1.60;;;8.00;55.60;;;;;;5052906;28;20021;-71
2022/05/18 05:24:09;;;;;;;6.97;1.52;;;7.90;55.30;;;;;;5053030;28;20048;-71
2022/05/18 05:26:35;;;;;;;4.13;2.00;;;8.10;55.50;;;;;;5050248;28;20535;-71
2022/05/18 05:29:01;;;;;;;4.45;2.38;;;8.30;55.50;;;;;;5041712;28;20470;-71
2022/05/18 05:31:27;;;;;;;3.13;1.35;;;8.40;55.30;;;;;;5041878;28;20082;-70
2022/05/18 05:33:53;;;;;;;3.05;1.50;;;8.40;54.60;;;;;;5034147;28;20017;-71
2022/05/18 05:36:19;;;;;;;4.53;1.70;;;8.40;54.60;;;;;;5037081;28;20076;-71
2022/05/18 05:38:45;;;;;;;2.13;1.40;;;8.50;54.70;;;;;;5037116;28;20033;-72
2022/05/18 05:41:10;;;;;;;3.42;1.40;;;8.70;55.00;;;;;;5037013;28;20032;-70
2022/05/18 05:43:36;;;;;;;2.80;1.48;;;8.90;54.50;;;;;;5037131;28;20391;-70
2022/05/18 05:46:05;;;;;;;2.15;1.60;;;9.10;54.20;;;;;;5046836;28;20102;-71
2022/05/18 05:48:32;;;;;;;2.67;1.70;;;9.30;53.20;;;;;;5055958;28;20048;-72
2022/05/18 05:51:00;;;;;;;7.22;1.75;;;9.40;53.10;;;;;;5056508;28;20394;-70
2022/05/18 05:53:26;;;;;;;1.25;1.10;;;9.50;52.70;;;;;;5055190;28;20124;-70
2022/05/18 05:55:53;;;;;;;3.55;1.65;;;9.70;52.70;;;;;;5056645;28;20032;-69
2022/05/18 05:58:19;;;;;;;3.08;1.45;;;9.60;52.10;;;;;;5055305;28;20033;-70
2022/05/18 06:00:45;;;;;;;2.30;1.40;;;9.70;52.00;;;;;;5056310;28;20028;-70
2022/05/18 06:03:12;;;;;;;2.85;1.48;;;9.80;51.40;;;;;;5055246;28;20402;-69
2022/05/18 06:05:38;;;;;;;3.08;1.42;;;10.00;51.60;;;;;;5056057;28;20040;-68
2022/05/18 06:08:04;;;;;;;2.28;1.50;;;10.10;51.20;;;;;;5055103;28;20021;-69
2022/05/18 06:10:29;;;;;;;3.92;1.50;;;10.20;50.80;;;;;;5056387;28;20540;-70
2022/05/18 06:12:55;;;;;;;2.13;1.70;;;10.30;50.80;;;;;;5056338;28;20029;-70
2022/05/18 06:15:20;;;;;;;5.20;1.20;;;10.50;50.30;;;;;;5056170;28;20029;-71
2022/05/18 06:17:46;;;;;;;1.52;1.15;;;10.50;50.50;;;;;;5056011;28;20075;-71
2022/05/18 06:20:12;;;;;;;2.75;2.13;;;10.60;49.60;;;;;;5045816;28;20103;-69
2022/05/18 06:22:37;;;;;;;6.88;1.48;;;10.70;49.00;;;;;;5065029;28;20099;-69
2022/05/18 06:25:04;;;;;;;5.18;1.20;;;10.80;47.80;;;;;;5069890;28;20028;-69
2022/05/18 06:27:29;;;;;;;5.80;1.23;;;11.00;48.00;;;;;;5068797;28;20399;-69
2022/05/18 06:29:55;;;;;;;2.33;1.20;;;11.10;46.90;;;;;;5069294;28;20111;-71
2022/05/18 06:32:20;;;;;;;2.05;1.17;;;11.10;46.20;;;;;;5063141;28;20060;-69
2022/05/18 06:34:46;;;;;;;3.03;1.27;;;11.30;45.70;;;;;;5072297;28;20572;-69
2022/05/18 06:37:12;;;;;;;3.03;1.40;;;11.40;46.40;;;;;;5069865;28;20047;-68
2022/05/18 06:39:38;;;;;;;2.30;1.38;;;11.50;46.10;;;;;;5070652;28;20037;-68
2022/05/18 06:42:04;;;;;;;5.18;1.27;;;11.60;45.10;;;;;;5074494;28;20078;-69
2022/05/18 06:44:30;;;;;;;2.47;1.23;;;11.50;44.60;;;;;;5070987;28;20401;-69
2022/05/18 06:47:00;;;;;;;0.90;0.90;;;11.50;44.90;;;;;;5056654;28;20020;-69
2022/05/18 06:49:27;;;;;;;1.33;1.00;;;11.70;45.00;;;;;;5053559;28;20037;-69
2022/05/18 06:51:53;;;;;;;4.18;2.13;;;12.00;47.00;;;;;;5046535;28;20151;-69
2022/05/18 06:54:19;;;;;;;1.88;0.90;;;12.00;45.60;;;;;;5056585;28;20029;-71
2022/05/18 06:56:45;;;;;;;3.58;1.27;;;12.10;44.80;;;;;;5074455;28;20470;-69
2022/05/18 06:59:12;;;;;;;1.10;0.90;;;11.90;42.50;;;;;;5074146;28;20050;-69
2022/05/18 07:01:38;;;;;;;2.75;0.90;;;12.20;42.70;;;;;;5074373;28;20027;-69
2022/05/18 07:04:05;;;;;;;4.57;1.05;;;12.20;42.30;;;;;;5074044;28;20043;-69
2022/05/18 07:06:36;;;;;;;1.58;0.90;;;12.50;42.10;;;;;;5073849;28;20017;-69
2022/05/18 07:09:08;;;;;;;1.85;0.85;;;12.00;40.90;;;;;;5072354;28;20024;-69
2022/05/18 07:11:37;;;;;;;3.67;0.90;;;12.20;41.70;;;;;;5034277;28;20220;-69
2022/05/18 07:14:06;;;;;;;3.50;0.90;;;12.50;41.60;;;;;;5058172;28;20027;-69
2022/05/18 07:16:32;;;;;;;4.93;1.08;;;12.40;40.30;;;;;;5073985;28;20049;-69
2022/05/18 07:18:58;;;;;;;7.45;1.30;;;12.10;41.00;;;;;;5073931;28;20466;-71
2022/05/18 07:21:25;;;;;;;1.10;0.77;;;12.50;40.90;;;;;;5063317;28;20533;-71
2022/05/18 07:23:52;;;;;;;6.40;1.23;;;12.50;39.80;;;;;;5074182;28;20025;-71
2022/05/18 07:26:19;;;;;;;1.27;0.90;;;12.60;39.80;;;;;;5066742;28;20037;-71
2022/05/18 07:28:45;;;;;;;4.65;1.20;;;12.80;40.50;;;;;;5073491;28;20063;-69
2022/05/18 07:31:12;;;;;;;3.55;1.00;;;12.90;39.40;;;;;;5070769;28;20063;-70
2022/05/18 07:33:37;;;;;;;2.20;0.85;;;12.90;39.40;;;;;;5073938;28;20382;-70
2022/05/18 07:36:05;;;;;;;1.70;1.10;;;13.20;39.50;;;;;;5073055;28;20028;-71
2022/05/18 07:38:32;;;;;;;0.77;0.70;;;13.30;40.10;;;;;;5073736;28;20490;-70
2022/05/18 07:40:58;;;;;;;5.85;1.00;;;13.30;39.40;;;;;;5058464;28;20448;-71
2022/05/18 07:43:24;;;;;;;4.18;0.98;;;13.10;38.20;;;;;;5072358;28;20024;-71
2022/05/18 07:45:52;;;;;;;1.42;0.60;;;13.20;37.50;;;;;;5072218;28;20032;-71
2022/05/18 07:48:18;;;;;;;0.80;0.63;;;13.20;38.50;;;;;;5073357;28;20438;-70
2022/05/18 07:50:44;;;;;;;1.25;0.98;;;13.30;39.00;;;;;;5071478;28;20081;-71
2022/05/18 07:53:10;;;;;;;1.15;1.00;;;13.40;38.50;;;;;;5071886;28;20111;-71
2022/05/18 07:55:35;;;;;;;2.90;1.10;;;13.40;37.90;;;;;;5073318;28;20033;-71
2022/05/18 07:58:06;;;;;;;0.95;0.85;;;13.30;37.80;;;;;;5071207;28;20604;-71
2022/05/18 08:00:32;;;;;;;2.70;0.90;;;13.40;38.40;;;;;;5071746;28;20037;-71
2022/05/18 08:02:57;;;;;;;8.57;0.93;;;13.60;37.80;;;;;;5071857;28;20363;-71
2022/05/18 08:05:23;;;;;;;3.67;1.13;;;13.80;37.60;;;;;;5072400;28;20397;-71
2022/05/18 08:07:49;;;;;;;1.02;0.65;;;13.80;37.00;;;;;;5063561;28;20025;-71
2022/05/18 08:15:48;;;;;;;1.00;0.70;;;13.30;35.50;;;;;;5073144;28;20036;-71
2022/05/18 08:18:15;;;;;;;1.40;0.85;;;13.50;36.40;;;;;;5072654;28;20481;-71
2022/05/18 08:20:41;;;;;;;2.17;0.70;;;13.70;36.80;;;;;;5059764;28;20390;-71
2022/05/18 08:23:08;;;;;;;2.05;0.98;;;14.00;36.60;;;;;;5071962;28;20029;-72
2022/05/18 08:25:34;;;;;;;1.08;0.70;;;14.00;36.20;;;;;;5071491;28;20379;-72
2022/05/18 08:27:59;;;;;;;1.85;0.80;;;14.40;36.30;;;;;;5067324;28;20490;-72
2022/05/18 08:30:25;;;;;;;1.42;0.63;;;14.00;35.20;;;;;;5068339;28;20033;-72
2022/05/18 08:32:51;;;;;;;1.35;0.80;;;13.90;35.50;;;;;;5070283;28;20016;-71
2022/05/18 08:35:18;;;;;;;0.85;0.70;;;13.90;35.40;;;;;;5070483;28;20032;-71
2022/05/18 08:37:46;;;;;;;1.13;0.70;;;14.00;35.60;;;;;;5072210;28;20445;-72
2022/05/18 08:40:28;;;;;;;1.95;0.80;;;13.90;36.20;;;;;;5052387;28;20109;-71
2022/05/18 08:42:59;;;;;;;1.80;0.75;;;14.00;36.40;;;;;;5050540;28;20094;-71
2022/05/18 08:45:29;;;;;;;2.30;0.80;;;14.20;37.00;;;;;;5072296;28;20029;-71
2022/05/18 08:48:19;;;;;;;0.57;0.57;;;14.20;36.80;;;;;;5072428;28;20143;-71
2022/05/18 08:50:44;;;;;;;0.93;0.75;;;14.40;36.70;;;;;;5071838;28;20086;-71
2022/05/18 08:53:17;;;;;;;1.10;0.60;;;14.70;36.70;;;;;;5072119;28;20025;-71
2022/05/18 08:55:53;;;;;;;3.45;0.80;;;14.80;35.60;;;;;;5072153;28;20041;-71
2022/05/18 08:58:34;;;;;;;1.02;0.68;;;14.80;34.20;;;;;;5072028;28;20032;-71
2022/05/18 09:01:14;;;;;;;1.13;0.80;;;14.70;33.80;;;;;;5072094;28;20041;-71
2022/05/18 09:03:44;;;;;;;2.50;1.10;;;14.90;33.50;;;;;;5072100;28;20048;-71
2022/05/18 09:06:32;;;;;;;1.60;0.90;;;14.70;33.60;;;;;;5069945;28;20025;-72
2022/05/18 09:11:51;;;;;;;;;;;15.10;34.10;;;;;;5052007;28;20081;-72
2022/05/18 09:14:20;;;;;;;0.95;0.70;;;15.40;33.70;;;;;;5052024;28;20300;-72
2022/05/18 09:17:09;;;;;;;1.08;0.70;;;15.40;33.50;;;;;;5045651;28;20049;-72
2022/05/18 09:20:13;;;;;;;0.60;0.60;;;15.50;33.10;;;;;;5041430;28;20124;-72
2022/05/18 09:23:19;;;;;;;1.92;0.90;;;15.50;32.10;;;;;;5044353;28;20033;-72
2022/05/18 09:26:19;;;;;;;2.85;0.60;;;15.60;32.80;;;;;;5053787;28;20048;-72
2022/05/18 09:29:04;;;;;;;3.40;1.20;;;15.80;33.80;;;;;;5042740;28;20029;-72
2022/05/18 09:31:49;;;;;;;2.97;0.80;;;15.90;33.00;;;;;;5062642;28;20082;-72
2022/05/18 09:34:36;;;;;;;1.13;0.77;;;15.80;33.10;;;;;;5071004;28;20017;-72
2022/05/18 09:37:28;;;;;;;2.40;0.90;;;16.00;33.30;;;;;;5064018;28;20060;-73
2022/05/18 09:40:09;;;;;;;4.60;0.80;;;16.10;32.40;;;;;;5057052;28;20089;-71
2022/05/18 09:42:42;;;;;;;1.88;0.70;;;16.40;33.20;;;;;;5069585;28;20486;-72
2022/05/18 09:45:18;;;;;;;2.50;0.90;;;16.40;33.60;;;;;;5070285;28;20390;-72
2022/05/18 09:47:54;;;;;;;8.90;4.80;;;16.60;33.80;;;;;;5071821;28;20036;-72
2022/05/18 09:50:19;;;;;;;1.30;0.63;;;16.70;33.30;;;;;;5071009;28;20032;-72
2022/05/18 09:52:47;;;;;;;1.08;0.70;;;16.70;33.10;;;;;;5071622;28;20036;-72
2022/05/18 09:55:18;;;;;;;1.75;0.80;;;16.70;32.20;;;;;;5071415;28;20035;-72
2022/05/18 09:57:53;;;;;;;1.83;1.17;;;16.50;30.90;;;;;;5071631;28;20041;-72
2022/05/18 10:00:23;;;;;;;0.55;0.50;;;16.60;31.00;;;;;;5071526;28;20052;-72
2022/05/18 10:08:36;;;;;;;0.70;0.50;;;16.30;29.50;;;;;;5070437;28;19955;-72
2022/05/18 10:11:07;;;;;;;2.42;1.00;;;16.30;28.60;;;;;;5064626;28;20036;-72
2022/05/18 10:13:36;;;;;;;3.30;0.77;;;16.50;29.20;;;;;;5071710;28;20024;-72
2022/05/18 10:16:13;;;;;;;1.17;0.73;;;16.70;29.10;;;;;;5071266;28;20079;-72
2022/05/18 10:18:51;;;;;;;1.27;0.50;;;16.90;29.30;;;;;;5071011;28;20539;-72
2022/05/18 10:21:18;;;;;;;1.38;0.70;;;17.10;29.60;;;;;;5058959;28;20032;-73
2022/05/18 10:24:01;;;;;;;2.03;0.93;;;17.30;29.40;;;;;;5075395;28;20020;-73
2022/05/18 10:26:34;;;;;;;1.35;0.75;;;17.30;28.20;;;;;;5074876;28;20469;-72
2022/05/18 10:29:22;;;;;;;7.43;0.70;;;17.40;28.70;;;;;;5070710;28;20099;-72
2022/05/18 10:32:06;;;;;;;0.63;0.60;;;17.40;28.90;;;;;;5069555;28;20067;-72
2022/05/18 10:34:46;;;;;;;4.55;0.60;;;17.50;28.40;;;;;;5073244;28;20400;-72
2022/05/18 10:37:22;;;;;;;1.02;0.40;;;17.60;27.90;;;;;;5074428;28;20051;-72
2022/05/18 10:39:48;;;;;;;1.65;0.60;;;17.20;27.00;;;;;;5061916;28;20025;-72
2022/05/18 10:42:23;;;;;;;2.15;0.70;;;17.00;27.40;;;;;;5067470;28;20040;-72
2022/05/18 10:44:51;;;;;;;0.65;0.63;;;16.90;27.00;;;;;;5075071;28;20074;-73
2022/05/18 10:47:36;;;;;;;1.48;0.63;;;16.90;26.60;;;;;;5066341;28;20108;-73
2022/05/18 10:50:25;;;;;;;2.28;0.73;;;17.30;26.80;;;;;;5055383;28;20486;-73
2022/05/18 10:53:00;;;;;;;1.80;0.50;;;17.40;26.70;;;;;;5054124;28;20060;-72
2022/05/18 10:55:29;;;;;;;3.80;0.60;;;17.50;27.60;;;;;;5055624;28;20025;-73
2022/05/18 10:58:00;;;;;;;1.13;0.43;;;17.50;27.40;;;;;;5055674;28;20453;-72
2022/05/18 11:00:42;;;;;;;0.47;0.47;;;17.30;26.80;;;;;;5053720;28;20029;-73
2022/05/18 11:03:22;;;;;;;1.00;0.50;;;17.50;26.50;;;;;;5054679;28;20116;-73
2022/05/18 11:05:51;;;;;;;1.88;0.60;;;17.70;26.20;;;;;;5055727;28;20031;-72
2022/05/18 11:08:20;;;;;;;0.80;0.55;;;17.70;25.90;;;;;;5055715;28;20078;-73
2022/05/18 11:11:12;;;;;;;0.50;0.50;;;17.90;26.90;;;;;;5054496;28;20031;-72
2022/05/18 11:13:50;;;;;;;5.05;0.80;;;17.80;26.30;;;;;;5054504;28;20480;-73
2022/05/18 11:16:38;;;;;;;0.60;0.60;;;18.10;27.90;;;;;;5055463;28;20021;-73
2022/05/18 11:19:28;;;;;;;2.65;0.90;;;18.10;27.30;;;;;;5055333;28;20031;-72
2022/05/18 11:22:17;;;;;;;1.10;0.55;;;18.20;28.40;;;;;;5055484;28;20041;-72
2022/05/18 11:25:04;;;;;;;1.92;0.63;;;18.10;29.20;;;;;;5052300;28;20051;-73
2022/05/18 11:27:38;;;;;;;0.95;0.63;;;18.20;28.50;;;;;;5055228;28;20099;-73
2022/05/18 11:30:16;;;;;;;3.10;0.80;;;18.00;28.20;;;;;;5055048;28;20100;-73
2022/05/18 11:33:10;;;;;;;1.88;0.70;;;18.00;28.00;;;;;;5055075;28;20063;-73
2022/05/18 11:35:46;;;;;;;0.80;0.80;;;17.90;27.30;;;;;;5046500;28;20115;-73
2022/05/18 11:38:50;;;;;;;1.27;0.82;;;17.50;27.40;;;;;;5053898;28;20049;-73
2022/05/18 11:41:42;;;;;;;1.00;0.70;;;17.70;27.20;;;;;;5045194;28;20040;-73
2022/05/18 11:44:22;;;;;;;2.13;0.70;;;18.20;28.10;;;;;;5053875;28;20025;-72
2022/05/18 11:47:18;;;;;;;1.75;0.52;;;18.40;27.90;;;;;;5055075;28;20032;-73
2022/05/18 11:50:06;;;;;;;3.22;0.82;;;18.60;27.70;;;;;;5053690;28;20044;-72
2022/05/18 11:52:53;;;;;;;2.42;0.60;;;18.70;27.90;;;;;;5054913;28;20025;-73
2022/05/18 11:55:34;;;;;;;0.82;0.73;;;18.60;27.20;;;;;;5053604;28;20397;-73
2022/05/18 11:58:52;;;;;;;1.80;0.60;;;18.40;27.50;;;;;;5054890;28;20037;-73
2022/05/18 12:01:21;;;;;;;1.63;0.60;;;18.20;28.50;;;;;;5054867;28;20163;-74
2022/05/18 12:04:10;;;;;;;0.70;0.40;;;18.20;28.60;;;;;;5054521;28;20024;-72
2022/05/18 12:06:47;;;;;;;0.70;0.60;;;18.10;28.20;;;;;;5054489;28;20028;-72
2022/05/18 12:09:45;;;;;;;0.60;0.60;;;18.10;27.30;;;;;;5054525;28;20025;-72
2022/05/18 12:12:11;;;;;;;2.78;0.77;;;18.10;27.30;;;;;;5054644;28;20434;-72
2022/05/18 12:15:21;;;;;;;2.53;0.80;;;17.90;27.10;;;;;;5054466;28;20048;-72
2022/05/18 12:17:57;;;;;;;1.88;0.52;;;17.90;25.90;;;;;;5041993;28;20552;-73
2022/05/18 12:20:36;;;;;;;0.52;0.43;;;17.90;26.70;;;;;;5052705;28;20482;-73
2022/05/18 12:23:06;;;;;;;1.95;1.02;;;18.10;26.90;;;;;;5049096;28;20029;-73
2022/05/18 12:25:34;;;;;;;0.90;0.50;;;18.20;27.20;;;;;;5065883;28;20020;-73
2022/05/18 12:28:02;;;;;;;0.52;0.52;;;18.50;27.90;;;;;;5051915;28;20032;-73
2022/05/18 12:30:30;;;;;;;1.10;0.68;;;18.80;27.80;;;;;;5047448;28;20087;-74
2022/05/18 12:32:57;;;;;;;1.25;0.68;;;19.00;28.30;;;;;;5048479;28;20032;-73
2022/05/18 12:35:35;;;;;;;0.50;0.50;;;19.10;27.70;;;;;;5039887;28;20017;-73
2022/05/18 12:38:21;;;;;;;1.27;0.50;;;19.10;26.80;;;;;;5069313;28;20127;-73
2022/05/18 12:41:11;;;;;;;1.98;0.90;;;19.00;26.10;;;;;;5046774;28;20025;-74
2022/05/18 12:43:44;;;;;;;0.63;0.52;;;19.10;26.40;;;;;;5049583;28;20021;-73
2022/05/18 12:46:20;;;;;;;0.85;0.35;;;19.00;26.60;;;;;;5043933;28;20096;-73
2022/05/18 12:49:08;;;;;;;2.83;0.57;;;19.10;26.10;;;;;;5044452;28;20029;-73
2022/05/18 12:51:52;;;;;;;2.40;0.77;;;19.40;25.30;;;;;;5048495;28;20025;-73
2022/05/18 12:54:33;;;;;;;1.15;0.60;;;19.50;26.60;;;;;;5053591;28;20504;-73
2022/05/18 12:57:05;;;;;;;1.35;0.60;;;19.50;27.70;;;;;;5061506;28;20036;-74
2022/05/18 12:59:54;;;;;;;1.77;0.67;;;19.40;27.70;;;;;;5071290;28;20032;-74
2022/05/18 13:02:48;;;;;;;2.00;0.57;;;19.20;25.50;;;;;;5071824;28;20632;-73
2022/05/18 13:05:40;;;;;;;2.83;0.68;;;18.60;24.80;;;;;;5069079;28;20112;-73
2022/05/18 13:08:35;;;;;;;4.60;0.80;;;18.50;25.20;;;;;;5048321;28;20061;-74
2022/05/18 13:11:28;;;;;;;1.95;0.60;;;18.70;25.20;;;;;;5072165;28;20021;-72
2022/05/18 13:13:56;;;;;;;0.85;0.55;;;18.80;25.40;;;;;;5072305;28;20478;-72
2022/05/18 13:16:42;;;;;;;0.38;0.38;;;19.00;25.60;;;;;;5062579;28;20025;-72
2022/05/18 13:19:13;;;;;;;0.40;0.40;;;19.10;24.80;;;;;;5069058;28;20041;-72
2022/05/18 13:21:44;;;;;;;1.60;0.47;;;19.20;24.70;;;;;;5052585;28;20478;-74
2022/05/18 13:24:34;;;;;;;0.43;0.43;;;19.20;24.40;;;;;;5051814;28;20021;-72
2022/05/18 13:27:13;;;;;;;1.15;0.40;;;19.50;25.50;;;;;;5051758;28;20028;-72
2022/05/18 13:29:39;;;;;;;0.55;0.52;;;19.50;25.80;;;;;;5053361;28;20021;-74
2022/05/18 13:32:11;;;;;;;2.25;0.70;;;19.60;26.10;;;;;;5072673;28;20020;-72
2022/05/18 13:34:48;;;;;;;1.27;0.75;;;19.60;25.80;;;;;;5073467;28;20541;-72